Time;durP1;ratioP1;P1;durP2;ratioP2;P2;SDS_P1;SDS_P2;PMS_P1;PMS_P2;Temp;Humidity;BMP_temperature;BMP_pressure;BME280_temperature;BME280_humidity;BME280_pressure;Samples;Min_cycle;Max_cycle;Signal;HPM_P1;HPM_P2
2023/09/10 00:02:17;;;;;;;7.57;6.15;;;17.30;99.90;;;;;;4825256;29;20682;-87
2023/09/10 00:04:44;;;;;;;9.32;6.32;;;17.30;99.90;;;;;;4825572;29;20197;-87
2023/09/10 00:07:10;;;;;;;6.75;6.07;;;17.40;99.90;;;;;;4823404;29;20191;-87
2023/09/10 00:09:35;;;;;;;9.25;6.50;;;17.40;99.90;;;;;;4825084;29;20644;-88
2023/09/10 00:12:01;;;;;;;7.78;6.05;;;17.30;99.90;;;;;;4824994;29;20185;-88
2023/09/10 00:14:27;;;;;;;6.93;6.18;;;17.20;99.90;;;;;;4825175;29;20202;-88
2023/09/10 00:16:53;;;;;;;8.70;6.53;;;17.20;99.90;;;;;;4824778;29;20208;-87
2023/09/10 00:19:18;;;;;;;8.55;6.10;;;17.20;99.90;;;;;;4825130;29;20189;-87
2023/09/10 00:21:44;;;;;;;9.57;6.20;;;17.10;99.90;;;;;;4824923;29;20186;-88
2023/09/10 00:24:11;;;;;;;10.30;6.40;;;17.10;99.90;;;;;;4824927;29;20537;-88
2023/09/10 00:26:36;;;;;;;7.45;6.00;;;17.10;99.90;;;;;;4826825;29;20632;-88
2023/09/10 00:29:02;;;;;;;9.82;6.18;;;17.10;99.90;;;;;;4828118;29;20182;-87
2023/09/10 00:31:28;;;;;;;10.02;6.32;;;17.10;99.90;;;;;;4828003;29;20182;-88
2023/09/10 00:33:54;;;;;;;6.97;5.97;;;17.10;99.90;;;;;;4828062;29;20228;-87
2023/09/10 00:36:20;;;;;;;8.35;6.60;;;17.10;99.90;;;;;;4827896;29;20235;-87
2023/09/10 00:38:45;;;;;;;9.13;6.60;;;17.10;99.90;;;;;;4827462;29;20235;-88
2023/09/10 00:41:11;;;;;;;9.32;6.00;;;17.00;99.90;;;;;;4828050;29;20196;-87
2023/09/10 00:43:42;;;;;;;8.35;5.40;;;17.00;99.90;;;;;;4827980;29;20232;-87
2023/09/10 00:46:09;;;;;;;7.10;5.55;;;17.00;99.90;;;;;;4827562;29;20221;-86
2023/09/10 00:48:39;;;;;;;8.30;6.18;;;17.00;99.90;;;;;;4827695;29;20190;-87
2023/09/10 00:51:05;;;;;;;6.45;5.75;;;17.10;99.90;;;;;;4828085;29;20213;-87
2023/09/10 00:53:32;;;;;;;9.27;5.75;;;17.10;99.90;;;;;;4827759;29;20257;-87
2023/09/10 00:55:58;;;;;;;6.97;5.95;;;17.10;99.90;;;;;;4827670;29;20238;-87
2023/09/10 00:58:24;;;;;;;7.57;6.07;;;17.10;99.90;;;;;;4827778;29;20213;-87
2023/09/10 01:00:50;;;;;;;7.95;5.72;;;17.10;99.90;;;;;;4827417;29;20181;-87
2023/09/10 01:03:16;;;;;;;6.78;5.53;;;17.10;99.90;;;;;;4827703;29;20215;-88
2023/09/10 01:05:42;;;;;;;6.63;4.97;;;16.90;99.90;;;;;;4827847;29;20530;-88
2023/09/10 01:08:08;;;;;;;5.70;4.93;;;16.80;99.90;;;;;;4827197;29;20629;-88
2023/09/10 01:10:47;;;;;;;7.47;5.43;;;16.80;99.90;;;;;;4827400;29;20199;-87
2023/09/10 01:13:38;;;;;;;9.55;5.85;;;16.80;99.90;;;;;;4827514;29;20221;-88
2023/09/10 01:16:18;;;;;;;6.88;5.55;;;16.80;99.90;;;;;;4835904;29;20193;-87
2023/09/10 01:18:56;;;;;;;6.15;5.55;;;16.80;99.90;;;;;;4846051;29;20177;-87
2023/09/10 01:21:48;;;;;;;6.72;5.50;;;16.70;99.90;;;;;;4845835;29;20182;-87
2023/09/10 01:24:24;;;;;;;9.68;6.07;;;16.70;99.90;;;;;;5247768;23;20261;-86
2023/09/10 01:26:57;;;;;;;9.52;6.18;;;16.70;99.90;;;;;;4791692;30;20194;-83
2023/09/10 01:29:23;;;;;;;9.40;5.82;;;16.60;99.90;;;;;;4791450;30;20238;-83
2023/09/10 01:31:54;;;;;;;7.32;5.97;;;16.70;99.90;;;;;;4790097;30;20194;-83
2023/09/10 01:34:24;;;;;;;9.18;5.93;;;16.70;99.90;;;;;;4791232;30;20211;-83
2023/09/10 01:36:56;;;;;;;7.97;5.90;;;16.60;99.90;;;;;;4774978;30;20183;-83
2023/09/10 01:39:30;;;;;;;9.57;6.43;;;16.60;99.90;;;;;;4790189;29;20676;-84
2023/09/10 01:41:57;;;;;;;6.47;5.78;;;16.60;99.90;;;;;;4791273;30;20171;-84
2023/09/10 01:44:25;;;;;;;9.38;5.80;;;16.60;99.90;;;;;;4789981;30;20190;-83
2023/09/10 01:46:53;;;;;;;8.00;5.70;;;16.50;99.90;;;;;;4790986;30;20189;-83
2023/09/10 01:49:20;;;;;;;6.13;5.20;;;16.40;99.90;;;;;;4791068;30;20184;-83
2023/09/10 01:51:45;;;;;;;13.90;5.57;;;16.40;99.90;;;;;;4791215;30;20176;-83
2023/09/10 01:54:11;;;;;;;6.38;5.03;;;16.30;99.90;;;;;;4800262;29;20236;-85
2023/09/10 01:56:37;;;;;;;9.50;5.70;;;16.40;99.90;;;;;;4827005;29;20590;-83
2023/09/10 01:59:02;;;;;;;7.50;5.57;;;16.40;99.90;;;;;;4825856;29;20182;-82
2023/09/10 02:01:28;;;;;;;7.47;5.65;;;16.40;99.90;;;;;;4825760;29;20189;-82
2023/09/10 02:03:54;;;;;;;7.53;5.75;;;16.30;99.90;;;;;;4825851;29;20285;-83
2023/09/10 02:06:19;;;;;;;5.95;5.38;;;16.30;99.90;;;;;;4825665;29;20186;-83
2023/09/10 02:08:45;;;;;;;7.72;5.20;;;16.30;99.90;;;;;;4826330;29;20231;-84
2023/09/10 02:11:12;;;;;;;9.07;6.32;;;16.30;99.90;;;;;;4825611;29;20521;-84
2023/09/10 02:13:38;;;;;;;7.22;5.50;;;16.30;99.90;;;;;;4826887;29;20210;-82
2023/09/10 02:16:04;;;;;;;6.55;5.88;;;16.30;99.90;;;;;;4826810;29;20189;-83
2023/09/10 02:18:30;;;;;;;9.63;6.00;;;16.20;99.90;;;;;;4825223;29;20600;-83
2023/09/10 02:20:55;;;;;;;6.80;5.97;;;16.30;99.90;;;;;;4825430;29;20223;-83
2023/09/10 02:23:21;;;;;;;9.25;6.50;;;16.20;99.90;;;;;;4826844;29;20618;-83
2023/09/10 02:25:47;;;;;;;10.30;6.47;;;16.20;99.90;;;;;;4843653;29;20236;-85
2023/09/10 02:28:13;;;;;;;7.35;6.18;;;16.10;99.90;;;;;;4844684;29;20251;-83
2023/09/10 02:30:38;;;;;;;8.20;6.00;;;16.10;99.90;;;;;;4844720;29;20282;-83
2023/09/10 02:33:06;;;;;;;6.43;5.82;;;16.20;99.90;;;;;;4844659;29;20221;-84
2023/09/10 02:35:32;;;;;;;9.00;6.13;;;16.20;99.90;;;;;;4828687;29;20193;-83
2023/09/10 02:37:58;;;;;;;9.98;6.20;;;16.20;99.90;;;;;;4844634;29;20177;-83
2023/09/10 02:40:23;;;;;;;10.20;6.28;;;16.20;99.90;;;;;;4827653;29;20250;-83
2023/09/10 02:42:49;;;;;;;8.32;6.50;;;16.10;99.90;;;;;;4828250;29;20181;-83
2023/09/10 02:45:15;;;;;;;10.05;5.95;;;16.10;99.90;;;;;;4844489;29;20212;-82
2023/09/10 02:47:41;;;;;;;9.25;5.80;;;16.00;99.90;;;;;;4844303;29;20234;-83
2023/09/10 02:50:09;;;;;;;9.77;5.80;;;16.00;99.90;;;;;;4844338;29;20185;-83
2023/09/10 02:52:36;;;;;;;7.90;5.72;;;16.10;99.90;;;;;;4827973;29;20563;-84
2023/09/10 02:55:02;;;;;;;6.70;5.68;;;16.10;99.90;;;;;;4844108;29;20196;-82
2023/09/10 02:57:28;;;;;;;7.72;6.40;;;16.10;99.90;;;;;;4827806;29;20177;-83
2023/09/10 02:59:53;;;;;;;8.07;6.32;;;16.20;99.90;;;;;;4827891;29;20242;-82
2023/09/10 03:02:19;;;;;;;8.27;5.80;;;16.20;99.90;;;;;;4844307;29;20587;-83
2023/09/10 03:04:45;;;;;;;8.90;5.97;;;16.20;99.90;;;;;;4827939;29;20623;-83
2023/09/10 03:07:10;;;;;;;6.95;5.60;;;16.20;99.90;;;;;;4843596;29;20186;-82
2023/09/10 03:09:36;;;;;;;10.45;5.68;;;16.20;99.90;;;;;;4843812;29;20499;-83
2023/09/10 03:12:28;;;;;;;7.10;6.03;;;16.20;99.90;;;;;;4827949;29;20188;-83
2023/09/10 03:14:55;;;;;;;7.75;5.38;;;16.20;99.90;;;;;;4825356;29;20201;-83
2023/09/10 03:17:21;;;;;;;6.30;5.57;;;16.10;99.90;;;;;;4844025;29;20612;-83
2023/09/10 03:19:47;;;;;;;6.88;5.85;;;16.20;99.90;;;;;;4827670;29;20200;-82
2023/09/10 03:22:13;;;;;;;7.40;6.10;;;16.10;99.90;;;;;;4843965;29;20177;-83
2023/09/10 03:24:40;;;;;;;8.68;5.40;;;16.20;99.90;;;;;;4843398;29;20284;-82
2023/09/10 03:27:06;;;;;;;10.77;6.38;;;16.20;99.90;;;;;;4843714;29;20636;-83
2023/09/10 03:29:35;;;;;;;10.30;5.80;;;16.20;99.90;;;;;;4843907;29;20173;-83
2023/09/10 03:32:03;;;;;;;9.52;6.03;;;16.20;99.90;;;;;;4843847;29;20635;-83
2023/09/10 03:34:30;;;;;;;11.25;6.00;;;16.20;99.90;;;;;;4827290;29;20224;-82
2023/09/10 03:36:56;;;;;;;7.63;6.25;;;16.30;99.90;;;;;;4843596;29;20264;-82
2023/09/10 03:39:22;;;;;;;8.93;6.22;;;16.20;99.90;;;;;;4827062;29;20269;-83
2023/09/10 03:41:48;;;;;;;6.53;5.93;;;16.20;99.90;;;;;;4843631;29;20200;-84
2023/09/10 03:44:14;;;;;;;6.97;6.10;;;16.20;99.90;;;;;;4827302;29;20181;-83
2023/09/10 03:46:39;;;;;;;10.02;6.20;;;16.20;99.90;;;;;;4843593;29;20526;-83
2023/09/10 03:49:05;;;;;;;7.75;5.97;;;16.20;99.90;;;;;;4827225;29;20681;-82
2023/09/10 03:51:31;;;;;;;9.88;6.30;;;16.20;99.90;;;;;;4843571;29;20181;-82
2023/09/10 03:53:56;;;;;;;9.65;6.97;;;16.20;99.90;;;;;;4843144;29;20558;-82
2023/09/10 03:56:23;;;;;;;11.73;6.15;;;16.10;99.90;;;;;;4843461;29;20185;-82
2023/09/10 03:58:49;;;;;;;8.85;6.32;;;16.10;99.90;;;;;;4843539;29;20202;-83
2023/09/10 04:01:15;;;;;;;9.20;5.65;;;16.10;99.90;;;;;;4845389;29;20181;-84
2023/09/10 04:03:41;;;;;;;7.60;6.35;;;16.10;99.90;;;;;;4849543;29;20181;-83
2023/09/10 04:06:07;;;;;;;11.15;6.22;;;16.00;99.90;;;;;;4849542;29;20184;-83
2023/09/10 04:08:33;;;;;;;10.27;6.32;;;15.90;99.90;;;;;;4848896;29;20173;-84
2023/09/10 04:10:59;;;;;;;9.73;6.38;;;15.90;99.90;;;;;;4832685;29;20192;-83
2023/09/10 04:13:25;;;;;;;9.05;6.20;;;15.80;99.90;;;;;;4849531;29;20637;-83
2023/09/10 04:15:51;;;;;;;6.75;5.88;;;15.80;99.90;;;;;;4833025;29;20526;-83
2023/09/10 04:18:17;;;;;;;8.57;6.40;;;15.70;99.90;;;;;;4849281;29;20181;-83
2023/09/10 04:20:43;;;;;;;8.43;6.25;;;15.70;99.90;;;;;;4849704;29;20174;-83
2023/09/10 04:23:09;;;;;;;9.15;6.80;;;15.70;99.90;;;;;;4849434;29;20188;-82
2023/09/10 04:25:36;;;;;;;9.68;6.38;;;15.70;99.90;;;;;;4832498;29;20633;-83
2023/09/10 04:28:02;;;;;;;8.23;6.15;;;15.80;99.90;;;;;;4849325;29;20260;-84
2023/09/10 04:30:30;;;;;;;10.07;6.20;;;15.80;99.90;;;;;;4849419;29;20669;-83
2023/09/10 04:32:55;;;;;;;8.70;6.70;;;15.80;99.90;;;;;;4832671;29;20209;-84
2023/09/10 04:35:21;;;;;;;13.60;6.70;;;15.80;99.90;;;;;;4849382;29;20189;-84
2023/09/10 04:37:47;;;;;;;9.73;6.95;;;15.80;99.90;;;;;;4849078;29;20189;-83
2023/09/10 04:40:12;;;;;;;9.98;7.10;;;15.80;99.90;;;;;;4849033;29;20609;-83
2023/09/10 04:42:38;;;;;;;9.95;7.45;;;15.90;99.90;;;;;;4849322;29;20621;-83
2023/09/10 04:45:05;;;;;;;9.50;7.00;;;15.80;99.90;;;;;;4849317;29;20185;-83
2023/09/10 04:47:30;;;;;;;12.00;6.68;;;15.90;99.90;;;;;;4832503;29;20567;-83
2023/09/10 04:49:59;;;;;;;9.27;6.63;;;15.90;99.90;;;;;;4832761;29;20280;-83
2023/09/10 04:52:25;;;;;;;6.93;6.22;;;15.90;99.90;;;;;;4832629;29;20185;-82
2023/09/10 04:54:51;;;;;;;11.07;6.95;;;15.90;99.90;;;;;;4840403;29;20212;-83
2023/09/10 04:57:16;;;;;;;9.30;6.43;;;15.90;99.90;;;;;;4849130;29;20216;-83
2023/09/10 04:59:42;;;;;;;11.38;6.95;;;15.90;99.90;;;;;;4832628;29;20266;-83
2023/09/10 05:02:08;;;;;;;10.10;6.85;;;15.90;99.90;;;;;;4848989;29;20173;-82
2023/09/10 05:04:34;;;;;;;8.23;6.68;;;16.00;99.90;;;;;;4849098;29;20185;-82
2023/09/10 05:07:00;;;;;;;10.40;6.95;;;15.90;99.90;;;;;;4848704;29;20181;-83
2023/09/10 05:09:25;;;;;;;8.70;7.15;;;16.00;99.90;;;;;;4848747;29;20182;-83
2023/09/10 05:11:56;;;;;;;9.35;7.15;;;16.00;99.90;;;;;;4832585;29;20188;-83
2023/09/10 05:14:22;;;;;;;10.70;7.47;;;16.10;99.90;;;;;;4846186;29;20240;-82
2023/09/10 05:16:48;;;;;;;8.20;7.22;;;16.10;99.90;;;;;;4828131;29;20242;-83
2023/09/10 05:19:13;;;;;;;8.77;7.35;;;16.10;99.90;;;;;;4846143;29;20979;-83
2023/09/10 05:21:39;;;;;;;9.77;7.22;;;16.10;99.90;;;;;;4845992;29;20200;-83
2023/09/10 05:24:06;;;;;;;8.80;7.32;;;16.10;99.90;;;;;;4845855;29;20237;-83
2023/09/10 05:26:32;;;;;;;10.48;7.85;;;16.20;99.90;;;;;;4829197;29;20173;-84
2023/09/10 05:28:58;;;;;;;8.25;7.38;;;16.30;99.90;;;;;;4829282;29;20505;-83
2023/09/10 05:31:23;;;;;;;9.73;7.10;;;16.40;99.90;;;;;;4829295;29;20224;-83
2023/09/10 05:33:50;;;;;;;12.95;7.38;;;16.40;99.90;;;;;;4829301;29;20217;-83
2023/09/10 05:36:16;;;;;;;10.60;7.68;;;16.50;99.90;;;;;;4845519;29;20237;-83
2023/09/10 05:38:41;;;;;;;11.77;7.55;;;16.60;99.90;;;;;;4845602;29;20189;-84
2023/09/10 05:41:08;;;;;;;9.52;7.38;;;16.70;99.90;;;;;;4845417;29;20182;-84
2023/09/10 05:43:34;;;;;;;11.30;8.07;;;16.70;99.90;;;;;;4845614;29;20181;-83
2023/09/10 05:46:00;;;;;;;10.20;7.07;;;16.70;99.90;;;;;;4845535;29;20515;-82
2023/09/10 05:48:26;;;;;;;8.70;6.40;;;16.90;99.90;;;;;;4845501;29;20182;-84
2023/09/10 05:50:58;;;;;;;9.40;7.68;;;16.90;99.90;;;;;;4829096;29;20570;-84
2023/09/10 05:53:23;;;;;;;8.10;6.80;;;17.00;99.90;;;;;;4845641;29;20237;-85
2023/09/10 05:55:49;;;;;;;10.52;8.40;;;17.10;99.90;;;;;;4845357;29;20212;-83
2023/09/10 05:58:15;;;;;;;10.93;8.15;;;17.20;99.90;;;;;;4829017;29;20190;-83
2023/09/10 06:00:41;;;;;;;8.93;7.75;;;17.20;99.90;;;;;;4829076;29;20241;-83
2023/09/10 06:03:09;;;;;;;9.57;7.80;;;17.40;99.90;;;;;;4828773;29;20189;-83
2023/09/10 06:05:35;;;;;;;13.20;10.20;;;17.40;99.90;;;;;;4828818;29;20201;-82
2023/09/10 06:08:01;;;;;;;13.48;10.25;;;17.50;99.90;;;;;;4843617;29;20622;-82
2023/09/10 06:10:27;;;;;;;11.48;9.10;;;17.60;99.90;;;;;;4845050;29;20182;-83
2023/09/10 06:12:52;;;;;;;12.73;10.30;;;17.80;99.90;;;;;;4828738;29;20216;-83
2023/09/10 06:15:18;;;;;;;12.95;10.75;;;17.80;99.90;;;;;;4828686;29;20625;-81
2023/09/10 06:17:44;;;;;;;13.27;10.70;;;17.90;99.90;;;;;;4844963;29;20186;-84
2023/09/10 06:20:11;;;;;;;14.38;10.70;;;18.00;99.90;;;;;;4827105;29;20272;-82
2023/09/10 06:22:37;;;;;;;13.43;10.80;;;18.00;99.90;;;;;;4845105;29;20181;-82
2023/09/10 06:25:03;;;;;;;15.10;12.15;;;18.10;99.90;;;;;;4844451;29;20233;-83
2023/09/10 06:27:29;;;;;;;14.93;12.30;;;18.10;99.90;;;;;;4843433;29;20177;-82
2023/09/10 06:29:54;;;;;;;13.30;11.90;;;18.10;99.90;;;;;;4844820;29;20169;-83
2023/09/10 06:32:20;;;;;;;13.50;12.10;;;18.30;99.90;;;;;;4827177;29;20251;-83
2023/09/10 06:34:46;;;;;;;13.75;12.02;;;18.30;99.90;;;;;;4844687;29;20581;-83
2023/09/10 06:37:11;;;;;;;13.25;11.85;;;18.40;99.90;;;;;;4828326;29;20310;-83
2023/09/10 06:39:40;;;;;;;15.77;14.07;;;18.50;99.90;;;;;;4843899;29;20513;-82
2023/09/10 06:42:08;;;;;;;18.60;14.52;;;18.50;99.90;;;;;;4808190;29;20175;-83
2023/09/10 06:44:34;;;;;;;17.20;14.70;;;18.60;99.90;;;;;;4806937;29;20623;-80
2023/09/10 06:47:00;;;;;;;23.15;15.85;;;18.70;99.90;;;;;;4832837;29;20177;-82
2023/09/10 06:49:27;;;;;;;22.55;16.75;;;18.80;99.90;;;;;;4828043;29;20218;-82
2023/09/10 06:51:52;;;;;;;22.90;17.58;;;18.80;99.90;;;;;;4828529;29;20184;-82
2023/09/10 06:54:18;;;;;;;21.00;17.45;;;19.00;99.90;;;;;;4844450;29;20209;-82
2023/09/10 06:56:44;;;;;;;23.23;18.45;;;19.00;99.90;;;;;;4844322;29;20532;-82
2023/09/10 06:59:10;;;;;;;24.02;18.65;;;19.10;99.90;;;;;;4827870;29;20547;-82
2023/09/10 07:01:37;;;;;;;25.55;18.48;;;19.20;99.90;;;;;;4827722;29;20185;-83
2023/09/10 07:04:18;;;;;;;23.45;18.60;;;19.20;99.90;;;;;;4844401;29;20228;-83
2023/09/10 07:06:46;;;;;;;21.58;18.00;;;19.30;99.90;;;;;;4844328;29;20626;-83
2023/09/10 07:09:13;;;;;;;23.70;19.15;;;19.40;99.90;;;;;;4827473;29;20224;-83
2023/09/10 07:11:38;;;;;;;23.38;19.25;;;19.40;99.90;;;;;;4844279;29;20173;-82
2023/09/10 07:14:04;;;;;;;20.48;17.95;;;19.50;99.90;;;;;;4827778;29;20544;-82
2023/09/10 07:16:30;;;;;;;22.40;19.50;;;19.60;99.90;;;;;;4843750;29;20633;-83
2023/09/10 07:18:56;;;;;;;23.27;18.88;;;19.70;99.90;;;;;;4823869;29;20192;-83
2023/09/10 07:21:21;;;;;;;24.73;20.42;;;19.80;99.90;;;;;;4806608;29;20248;-84
2023/09/10 07:23:47;;;;;;;23.70;18.85;;;19.80;99.90;;;;;;4807587;29;20200;-83
2023/09/10 07:26:13;;;;;;;25.20;19.20;;;19.80;99.90;;;;;;4825823;29;20227;-83
2023/09/10 07:28:38;;;;;;;20.60;18.17;;;19.90;99.90;;;;;;4836756;29;20188;-85
2023/09/10 07:31:04;;;;;;;21.08;17.55;;;20.00;99.90;;;;;;4843606;29;20264;-83
2023/09/10 07:33:30;;;;;;;22.92;17.20;;;20.00;99.90;;;;;;4827517;29;20220;-84
2023/09/10 07:35:55;;;;;;;21.27;18.98;;;20.10;99.90;;;;;;4826842;29;20217;-85
2023/09/10 07:38:21;;;;;;;23.98;19.75;;;20.20;99.90;;;;;;4843502;29;20177;-85
2023/09/10 07:40:47;;;;;;;20.85;17.90;;;20.20;99.90;;;;;;4843566;29;20192;-85
2023/09/10 07:43:12;;;;;;;21.85;19.55;;;20.30;99.90;;;;;;4842500;29;20284;-84
2023/09/10 07:45:41;;;;;;;21.52;19.20;;;20.40;99.90;;;;;;4843533;29;20173;-84
2023/09/10 07:48:07;;;;;;;24.35;19.33;;;20.40;99.90;;;;;;4827177;29;20543;-85
2023/09/10 07:50:33;;;;;;;24.30;20.02;;;20.50;99.90;;;;;;4827542;29;20181;-83
2023/09/10 07:52:58;;;;;;;24.45;20.38;;;20.60;99.90;;;;;;4843407;29;20201;-83
2023/09/10 07:55:25;;;;;;;24.25;19.55;;;20.70;99.90;;;;;;4827215;29;20192;-84
2023/09/10 07:57:50;;;;;;;25.67;21.05;;;20.80;99.90;;;;;;4827201;29;20268;-83
2023/09/10 08:00:17;;;;;;;22.33;19.02;;;20.80;99.90;;;;;;4843502;29;20474;-85
2023/09/10 08:02:43;;;;;;;21.63;19.20;;;20.90;99.90;;;;;;4843696;29;20173;-84
2023/09/10 08:05:09;;;;;;;25.50;20.02;;;21.10;99.90;;;;;;4827207;29;20609;-85
2023/09/10 08:07:35;;;;;;;24.67;18.92;;;21.10;99.90;;;;;;4842821;29;20185;-84
2023/09/10 08:10:01;;;;;;;22.73;18.88;;;21.20;99.90;;;;;;4827157;29;20636;-92
2023/09/10 08:12:27;;;;;;;20.98;18.88;;;21.30;99.90;;;;;;4827010;29;20190;-84
2023/09/10 08:14:53;;;;;;;22.00;19.15;;;21.40;99.90;;;;;;4843526;29;20189;-84
2023/09/10 08:17:19;;;;;;;24.60;18.73;;;21.50;99.90;;;;;;4841948;29;20625;-84
2023/09/10 08:19:47;;;;;;;20.08;17.83;;;21.50;99.90;;;;;;4843265;29;20181;-85
2023/09/10 08:22:13;;;;;;;24.67;18.65;;;21.60;99.90;;;;;;4827002;29;20182;-84
2023/09/10 08:24:38;;;;;;;22.77;18.20;;;21.70;99.90;;;;;;4843147;29;20251;-86
2023/09/10 08:27:04;;;;;;;23.75;19.05;;;21.80;99.90;;;;;;4826762;29;20637;-85
2023/09/10 08:29:30;;;;;;;19.58;16.67;;;21.90;99.90;;;;;;4826860;29;20185;-84
2023/09/10 08:31:57;;;;;;;19.50;17.50;;;22.00;99.90;;;;;;4826685;29;20226;-85
2023/09/10 08:34:23;;;;;;;19.95;17.42;;;22.00;99.90;;;;;;4826816;29;20213;-86
2023/09/10 08:36:48;;;;;;;20.27;18.17;;;22.10;99.90;;;;;;4842964;29;20200;-85
2023/09/10 08:39:14;;;;;;;21.30;17.42;;;22.20;99.90;;;;;;4843076;29;20517;-84
2023/09/10 08:42:06;;;;;;;19.15;16.70;;;22.30;99.90;;;;;;4843268;29;20166;-85
2023/09/10 08:44:32;;;;;;;20.52;17.80;;;22.40;99.90;;;;;;4843305;29;20166;-86
2023/09/10 08:47:01;;;;;;;23.70;16.42;;;22.50;99.90;;;;;;4842960;29;20264;-85
2023/09/10 08:49:29;;;;;;;17.77;15.98;;;22.50;99.90;;;;;;4846558;29;20188;-85
2023/09/10 08:51:56;;;;;;;20.20;15.88;;;22.60;99.90;;;;;;4829955;29;20185;-85
2023/09/10 08:54:22;;;;;;;18.02;14.90;;;22.60;99.90;;;;;;4829889;29;20660;-85
2023/09/10 08:56:49;;;;;;;21.95;15.25;;;22.80;99.90;;;;;;4829986;29;20182;-85
2023/09/10 08:59:15;;;;;;;19.38;15.35;;;22.90;99.90;;;;;;4846441;29;20182;-85
2023/09/10 09:01:44;;;;;;;19.38;14.45;;;22.90;99.90;;;;;;4846134;29;20181;-84
2023/09/10 09:04:12;;;;;;;17.08;15.25;;;23.00;99.90;;;;;;4829813;29;20235;-85
2023/09/10 09:06:43;;;;;;;15.50;13.30;;;23.10;99.90;;;;;;4846196;29;20491;-85
2023/09/10 09:09:11;;;;;;;16.42;13.75;;;23.10;99.90;;;;;;4829303;29;20188;-85
2023/09/10 09:11:41;;;;;;;14.48;13.07;;;23.30;99.90;;;;;;4846352;29;20263;-85
2023/09/10 09:14:09;;;;;;;18.88;13.75;;;23.30;99.90;;;;;;4829539;29;20231;-85
2023/09/10 09:16:38;;;;;;;15.70;14.10;;;23.40;99.90;;;;;;4845842;29;20183;-85
2023/09/10 09:19:11;;;;;;;16.42;13.73;;;23.50;99.90;;;;;;4846020;29;20198;-85
2023/09/10 09:21:43;;;;;;;16.65;14.13;;;23.60;99.90;;;;;;4829644;29;20224;-84
2023/09/10 09:24:12;;;;;;;16.95;13.52;;;23.70;99.90;;;;;;4846088;29;20684;-86
2023/09/10 09:26:39;;;;;;;20.38;14.35;;;23.70;99.90;;;;;;4845845;29;20640;-84
2023/09/10 09:29:07;;;;;;;18.60;13.48;;;23.80;99.90;;;;;;4829376;29;20233;-85
2023/09/10 09:31:33;;;;;;;19.65;14.02;;;23.80;99.90;;;;;;4845673;29;20645;-85
2023/09/10 09:33:59;;;;;;;14.77;12.63;;;23.80;99.90;;;;;;4829305;29;20217;-85
2023/09/10 09:36:27;;;;;;;14.18;11.88;;;23.90;99.90;;;;;;4845923;29;20234;-85
2023/09/10 09:38:54;;;;;;;18.05;12.57;;;24.00;99.90;;;;;;4829162;29;20200;-85
2023/09/10 09:41:20;;;;;;;13.75;11.55;;;24.10;99.90;;;;;;4845696;29;20177;-85
2023/09/10 09:43:46;;;;;;;15.43;13.77;;;24.20;99.90;;;;;;4829268;29;20515;-85
2023/09/10 09:46:12;;;;;;;17.40;14.15;;;24.30;99.90;;;;;;4828820;29;20221;-86
2023/09/10 09:48:39;;;;;;;14.95;12.13;;;24.40;99.90;;;;;;4829192;29;20196;-85
2023/09/10 09:51:06;;;;;;;14.57;12.85;;;24.30;99.90;;;;;;4829105;29;20633;-87
2023/09/10 09:53:33;;;;;;;14.73;12.48;;;24.40;99.90;;;;;;4829317;29;20216;-85
2023/09/10 09:56:00;;;;;;;14.70;13.20;;;24.50;99.90;;;;;;4845422;29;20242;-85
2023/09/10 09:58:29;;;;;;;16.33;12.13;;;24.50;99.90;;;;;;4828519;29;20185;-84
2023/09/10 10:00:55;;;;;;;15.68;12.00;;;24.60;99.90;;;;;;4828428;29;20200;-85
2023/09/10 10:03:21;;;;;;;13.57;12.02;;;24.70;99.90;;;;;;4845590;29;20165;-84
2023/09/10 10:05:54;;;;;;;14.13;12.38;;;24.80;99.90;;;;;;4828944;29;20241;-87
2023/09/10 10:08:25;;;;;;;18.58;13.77;;;24.80;99.90;;;;;;4828651;29;20206;-85
2023/09/10 10:10:51;;;;;;;13.93;12.13;;;24.80;99.90;;;;;;4845249;29;20218;-86
2023/09/10 10:13:19;;;;;;;14.40;11.73;;;24.90;99.90;;;;;;4845094;29;20216;-89
2023/09/10 10:15:54;;;;;;;12.55;10.82;;;25.00;99.90;;;;;;4828746;29;20197;-86
2023/09/10 10:18:21;;;;;;;13.13;11.73;;;25.00;99.90;;;;;;4828333;29;20177;-86
2023/09/10 10:20:49;;;;;;;12.45;11.25;;;25.00;99.90;;;;;;4828516;29;20221;-88
2023/09/10 10:23:17;;;;;;;13.25;11.80;;;25.10;99.90;;;;;;4828642;29;20177;-86
2023/09/10 10:25:44;;;;;;;15.45;11.35;;;25.10;99.90;;;;;;4825285;29;20241;-88
2023/09/10 10:28:12;;;;;;;12.73;10.50;;;25.10;99.90;;;;;;4825399;29;20182;-85
2023/09/10 10:30:42;;;;;;;11.85;10.45;;;25.20;99.90;;;;;;4826776;29;20199;-87
2023/09/10 10:33:10;;;;;;;12.13;10.85;;;25.30;99.90;;;;;;4826310;29;20210;-86
2023/09/10 10:35:44;;;;;;;12.48;10.32;;;25.40;99.90;;;;;;4826834;29;20238;-91
2023/09/10 10:38:15;;;;;;;14.48;9.65;;;25.40;99.90;;;;;;4825764;29;20185;-93
2023/09/10 10:40:43;;;;;;;14.23;9.27;;;25.40;99.90;;;;;;4827041;29;20331;-92
2023/09/10 10:43:12;;;;;;;15.07;9.98;;;25.50;99.90;;;;;;4827123;29;20177;-92
2023/09/10 10:45:38;;;;;;;13.73;9.90;;;25.50;99.90;;;;;;4825799;29;20200;-86
2023/09/10 10:48:18;;;;;;;13.98;8.60;;;25.50;99.90;;;;;;4826502;29;20186;-85
2023/09/10 10:50:46;;;;;;;12.05;10.85;;;25.60;99.90;;;;;;4825219;29;20178;-87
2023/09/10 10:53:18;;;;;;;11.38;9.10;;;25.60;99.90;;;;;;4825163;29;20209;-86
2023/09/10 10:55:45;;;;;;;13.23;8.68;;;25.70;99.90;;;;;;4825253;29;20238;-87
2023/09/10 10:58:12;;;;;;;11.70;9.30;;;25.80;99.90;;;;;;4824739;29;20178;-86
2023/09/10 11:00:38;;;;;;;10.68;8.52;;;25.90;99.90;;;;;;4824882;29;20186;-86
2023/09/10 11:03:13;;;;;;;9.30;8.35;;;25.90;99.90;;;;;;4824748;29;20513;-86
2023/09/10 11:05:54;;;;;;;12.52;8.50;;;26.00;99.90;;;;;;4824942;29;20181;-86
2023/09/10 11:08:32;;;;;;;11.95;9.48;;;26.10;99.90;;;;;;4826049;29;20263;-85
2023/09/10 11:10:59;;;;;;;17.33;9.52;;;26.20;99.90;;;;;;4824311;29;20596;-86
2023/09/10 11:13:25;;;;;;;11.18;8.68;;;26.30;99.90;;;;;;4825101;29;20267;-86
2023/09/10 11:16:05;;;;;;;12.30;9.02;;;26.30;99.90;;;;;;4824438;29;20209;-88
2023/09/10 11:18:37;;;;;;;11.38;9.07;;;26.40;99.90;;;;;;4825807;29;20186;-87
2023/09/10 11:21:08;;;;;;;10.85;7.85;;;26.50;99.90;;;;;;4823503;29;20242;-87
2023/09/10 11:23:35;;;;;;;9.30;7.93;;;26.50;99.90;;;;;;4826336;29;20311;-87
2023/09/10 11:26:13;;;;;;;11.85;8.68;;;26.60;99.90;;;;;;4844143;29;20626;-85
2023/09/10 11:28:40;;;;;;;12.18;8.40;;;26.70;99.90;;;;;;4843916;29;20613;-87
2023/09/10 11:31:33;;;;;;;13.75;8.65;;;26.80;99.90;;;;;;4843704;29;20515;-88
2023/09/10 11:34:22;;;;;;;11.43;8.15;;;26.80;99.90;;;;;;4817902;29;20692;-89
2023/09/10 11:37:02;;;;;;;10.70;8.25;;;26.80;99.90;;;;;;4843645;29;20223;-86
2023/09/10 11:39:29;;;;;;;11.48;7.72;;;26.80;99.90;;;;;;4828482;29;20234;-91
2023/09/10 11:41:59;;;;;;;14.80;8.40;;;26.90;99.90;;;;;;4828401;29;20268;-90
2023/09/10 11:44:25;;;;;;;14.30;7.95;;;27.00;99.90;;;;;;4828610;29;20184;-93
2023/09/10 11:46:52;;;;;;;10.60;7.95;;;27.10;99.90;;;;;;4828200;29;20181;-91
2023/09/10 11:49:19;;;;;;;12.95;7.90;;;27.20;99.90;;;;;;4828167;29;20189;-92
2023/09/10 11:51:57;;;;;;;13.25;8.88;;;27.20;99.90;;;;;;4828051;29;20181;-96
2023/09/10 11:54:23;;;;;;;12.57;7.70;;;27.20;99.90;;;;;;4828311;29;20220;-94
2023/09/10 11:56:55;;;;;;;17.42;8.23;;;27.20;99.90;;;;;;4828231;29;20204;-92
2023/09/10 11:59:29;;;;;;;11.30;7.78;;;27.20;99.90;;;;;;4828265;29;20344;-90
2023/09/10 12:02:07;;;;;;;12.25;8.30;;;27.20;99.90;;;;;;4828359;29;20253;-93
2023/09/10 12:04:33;;;;;;;9.98;7.95;;;27.20;99.90;;;;;;4828529;29;20188;-91
2023/09/10 12:07:01;;;;;;;9.40;8.38;;;27.30;99.90;;;;;;4828346;29;20185;-91
2023/09/10 12:09:32;;;;;;;10.93;8.48;;;27.40;99.90;;;;;;4829410;29;20185;-91
2023/09/10 12:12:09;;;;;;;13.30;8.55;;;27.30;99.90;;;;;;4828382;29;20193;-93
2023/09/10 12:14:35;;;;;;;10.40;8.20;;;27.40;99.90;;;;;;4828908;29;20290;-92
2023/09/10 12:17:04;;;;;;;14.07;8.10;;;27.40;99.90;;;;;;4830682;29;20181;-93
2023/09/10 12:19:31;;;;;;;12.65;8.63;;;27.40;99.90;;;;;;4828929;29;20227;-90
2023/09/10 12:22:09;;;;;;;13.65;8.48;;;27.40;99.90;;;;;;4830766;29;20250;-92
2023/09/10 12:24:39;;;;;;;12.07;8.43;;;27.50;99.90;;;;;;4834728;29;20260;-94
2023/09/10 12:27:05;;;;;;;10.93;8.48;;;27.50;99.90;;;;;;4833087;29;20625;-95
2023/09/10 12:29:32;;;;;;;14.40;8.98;;;27.50;99.90;;;;;;4850231;29;20193;-93
2023/09/10 12:31:59;;;;;;;10.30;7.80;;;27.60;99.90;;;;;;4833708;29;20625;-92
2023/09/10 12:34:25;;;;;;;14.05;8.75;;;27.70;99.90;;;;;;4832194;29;20247;-96
2023/09/10 12:36:51;;;;;;;14.75;8.10;;;27.80;99.90;;;;;;4833497;29;20181;-92
2023/09/10 12:39:22;;;;;;;11.85;8.70;;;27.80;99.90;;;;;;4831409;29;20207;-94
2023/09/10 12:41:53;;;;;;;12.02;8.05;;;27.80;99.90;;;;;;4832443;29;20236;-93